createdAt,value
2022-12-31T00:00:46.937Z,101168.69
2022-12-31T00:03:48.983Z,101162.41
2022-12-31T00:06:50.681Z,101168.47
2022-12-31T00:09:52.329Z,101175.69
2022-12-31T00:12:54.125Z,101165.84
2022-12-31T00:15:55.835Z,101167.75
2022-12-31T00:19:01.844Z,101169.09
2022-12-31T00:22:03.514Z,101170.41
2022-12-31T00:25:05.840Z,101183.28
2022-12-31T00:28:07.516Z,101179.69
2022-12-31T00:31:14.646Z,101172.97
2022-12-31T00:34:16.336Z,101176.00
2022-12-31T00:37:17.988Z,101170.09
2022-12-31T00:40:19.661Z,101182.31
2022-12-31T00:43:21.295Z,101186.00
2022-12-31T00:46:23.609Z,101179.53
2022-12-31T00:49:25.365Z,101186.16
2022-12-31T00:52:26.984Z,101192.41
2022-12-31T00:55:30.460Z,101195.09
2022-12-31T00:58:33.255Z,101191.19
2022-12-31T01:01:37.803Z,101188.94
2022-12-31T01:04:39.662Z,101186.00
2022-12-31T01:07:41.403Z,101183.25
2022-12-31T01:11:06.463Z,101178.56
2022-12-31T01:14:09.627Z,101177.88
2022-12-31T01:17:13.356Z,101175.97
2022-12-31T01:20:15.073Z,101180.00
2022-12-31T01:23:16.720Z,101183.34
2022-12-31T01:26:19.605Z,101188.16
2022-12-31T01:29:21.481Z,101189.53
2022-12-31T01:32:23.173Z,101188.81
2022-12-31T01:35:25.012Z,101186.81
2022-12-31T01:38:26.636Z,101193.25
2022-12-31T01:41:35.137Z,101192.84
2022-12-31T01:44:39.751Z,101192.19
2022-12-31T01:47:52.816Z,101188.09
2022-12-31T01:50:55.196Z,101189.41
2022-12-31T01:53:58.596Z,101179.56
2022-12-31T01:57:01.071Z,101182.37
2022-12-31T02:00:04.189Z,101186.28
2022-12-31T02:03:08.434Z,101189.00
2022-12-31T02:06:21.908Z,101187.84
2022-12-31T02:09:23.659Z,101176.88
2022-12-31T02:12:25.475Z,101176.84
2022-12-31T02:16:06.874Z,101176.44
2022-12-31T02:19:29.999Z,101174.31
2022-12-31T02:23:09.214Z,101171.50
2022-12-31T02:26:48.224Z,101168.25
2022-12-31T02:30:03.199Z,101171.50
2022-12-31T02:33:27.956Z,101159.66
2022-12-31T02:36:36.144Z,101167.97
2022-12-31T02:39:38.623Z,101172.25
2022-12-31T02:42:40.320Z,101175.16
2022-12-31T02:45:47.444Z,101174.12
2022-12-31T02:49:04.273Z,101178.50
2022-12-31T02:52:30.137Z,101183.69
2022-12-31T02:56:04.432Z,101179.28
2022-12-31T02:59:44.683Z,101187.25
2022-12-31T03:02:48.327Z,101197.22
2022-12-31T03:05:50.650Z,101183.34
2022-12-31T03:09:27.930Z,101173.13
2022-12-31T03:12:58.274Z,101177.53
2022-12-31T03:15:59.994Z,101176.37
2022-12-31T03:19:24.661Z,101173.56
2022-12-31T03:22:29.397Z,101162.16
2022-12-31T03:25:38.111Z,101160.13
2022-12-31T03:28:43.244Z,101180.53
2022-12-31T03:31:44.958Z,101187.13
2022-12-31T03:34:46.723Z,101188.59
2022-12-31T03:37:50.268Z,101185.75
2022-12-31T03:40:53.294Z,101180.06
2022-12-31T03:43:54.947Z,101184.12
2022-12-31T03:46:56.588Z,101188.00
2022-12-31T03:49:58.384Z,101179.09
2022-12-31T03:53:01.003Z,101169.41
2022-12-31T03:56:02.810Z,101176.59
2022-12-31T03:59:04.461Z,101184.00
2022-12-31T04:02:06.539Z,101186.56
2022-12-31T04:05:09.105Z,101190.91
2022-12-31T04:08:10.821Z,101188.59
2022-12-31T04:11:17.380Z,101190.72
2022-12-31T04:14:22.249Z,101187.47
2022-12-31T04:17:24.108Z,101182.06
2022-12-31T04:20:44.014Z,101185.31
2022-12-31T04:23:45.672Z,101185.81
2022-12-31T04:26:47.554Z,101191.16
2022-12-31T04:29:49.255Z,101194.88
2022-12-31T04:32:50.949Z,101190.34
2022-12-31T04:35:52.614Z,101184.56
2022-12-31T04:38:54.387Z,101182.31
2022-12-31T04:41:56.060Z,101184.91
2022-12-31T04:44:57.700Z,101183.91
2022-12-31T04:47:59.370Z,101181.78
2022-12-31T04:51:01.136Z,101171.34
2022-12-31T04:54:03.707Z,101168.63
2022-12-31T04:57:05.363Z,101185.34
2022-12-31T05:00:08.079Z,101199.22
2022-12-31T05:03:09.736Z,101207.09
2022-12-31T05:06:14.658Z,101210.69
2022-12-31T05:09:16.373Z,101210.69
2022-12-31T05:12:18.112Z,101209.59
2022-12-31T05:15:19.778Z,101206.87
2022-12-31T05:18:21.789Z,101200.81
2022-12-31T05:21:23.510Z,101207.09
2022-12-31T05:24:25.188Z,101206.75
2022-12-31T05:27:31.276Z,101192.94
2022-12-31T05:30:33.134Z,101196.41
2022-12-31T05:33:34.876Z,101198.78
2022-12-31T05:36:36.553Z,101215.63
2022-12-31T05:39:38.204Z,101220.88
2022-12-31T05:42:40.049Z,101224.47
2022-12-31T05:45:41.816Z,101219.97
2022-12-31T05:48:43.503Z,101225.00
2022-12-31T05:51:45.170Z,101221.53
2022-12-31T05:54:47.146Z,101226.09
2022-12-31T05:57:48.808Z,101232.91
2022-12-31T06:00:51.842Z,101234.59
2022-12-31T06:03:53.551Z,101231.66
2022-12-31T06:06:55.501Z,101230.50
2022-12-31T06:09:57.157Z,101236.87
2022-12-31T06:12:58.833Z,101234.69
2022-12-31T06:16:10.823Z,101241.62
2022-12-31T06:19:12.499Z,101259.91
2022-12-31T06:22:14.193Z,101259.19
2022-12-31T06:25:15.992Z,101253.16
2022-12-31T06:28:20.371Z,101247.63
2022-12-31T06:31:22.625Z,101246.28
2022-12-31T06:34:24.337Z,101257.31
2022-12-31T06:37:26.017Z,101259.03
2022-12-31T06:40:27.695Z,101265.88
2022-12-31T06:43:29.568Z,101266.53
2022-12-31T06:46:31.313Z,101266.97
2022-12-31T06:49:33.018Z,101266.00
2022-12-31T06:52:34.655Z,101277.66
2022-12-31T06:55:36.593Z,101293.09
2022-12-31T06:58:38.526Z,101302.53
2022-12-31T07:02:16.606Z,101301.50
2022-12-31T07:05:36.661Z,101302.44
2022-12-31T07:08:56.649Z,101322.28
2022-12-31T07:12:12.589Z,101315.97
2022-12-31T07:15:37.105Z,101314.53
2022-12-31T07:19:16.023Z,101317.19
2022-12-31T07:22:17.973Z,101318.91
2022-12-31T07:25:20.546Z,101323.19
2022-12-31T07:28:45.453Z,101334.09
2022-12-31T07:32:00.993Z,101335.31
2022-12-31T07:35:50.619Z,101344.84
2022-12-31T07:39:10.546Z,101361.56
2022-12-31T07:42:18.627Z,101366.19
2022-12-31T07:45:39.023Z,101358.06
2022-12-31T07:48:40.927Z,101358.97
2022-12-31T07:51:43.099Z,101343.59
2022-12-31T07:54:44.877Z,101333.34
2022-12-31T07:58:01.726Z,101342.75
2022-12-31T08:01:04.345Z,101363.34
2022-12-31T08:04:09.737Z,101373.28
2022-12-31T08:07:19.516Z,101379.56
2022-12-31T08:10:37.680Z,101368.81
2022-12-31T08:13:41.913Z,101367.34
2022-12-31T08:16:44.002Z,101356.50
2022-12-31T08:19:46.334Z,101356.03
2022-12-31T08:22:47.887Z,101350.69
2022-12-31T08:26:14.335Z,101363.28
2022-12-31T08:29:34.287Z,101368.78
2022-12-31T08:32:38.863Z,101377.56
2022-12-31T08:35:49.609Z,101391.62
2022-12-31T08:39:03.334Z,101380.41
2022-12-31T08:42:17.295Z,101381.88
2022-12-31T08:45:22.752Z,101390.72
2022-12-31T08:48:37.748Z,101370.06
2022-12-31T08:51:39.687Z,101368.94
2022-12-31T08:54:41.648Z,101375.03
2022-12-31T08:58:06.192Z,101378.84
2022-12-31T09:01:08.828Z,101380.19
2022-12-31T09:04:49.585Z,101379.41
2022-12-31T09:08:06.198Z,101380.00
2022-12-31T09:11:16.372Z,101380.06
2022-12-31T09:14:44.354Z,101387.38
2022-12-31T09:17:48.148Z,101400.81
2022-12-31T09:20:50.058Z,101398.06
2022-12-31T09:23:52.006Z,101392.28
2022-12-31T09:27:11.479Z,101385.81
2022-12-31T09:30:16.447Z,101382.13
2022-12-31T09:33:38.240Z,101402.03
2022-12-31T09:36:48.388Z,101405.81
2022-12-31T09:39:50.789Z,101397.00
2022-12-31T09:43:22.217Z,101409.72
2022-12-31T09:46:49.800Z,101425.72
2022-12-31T09:50:18.905Z,101413.25
2022-12-31T09:53:26.412Z,101407.25
2022-12-31T09:56:39.822Z,101412.38
2022-12-31T09:59:53.519Z,101415.53
2022-12-31T10:03:27.182Z,101415.53
2022-12-31T10:06:40.563Z,101421.06
2022-12-31T10:10:07.875Z,101409.16
2022-12-31T10:13:47.659Z,101403.53
2022-12-31T10:16:58.138Z,101405.03
2022-12-31T10:20:21.355Z,101395.75
2022-12-31T10:23:28.871Z,101387.97
2022-12-31T10:26:30.366Z,101375.31
2022-12-31T10:29:41.019Z,101373.97
2022-12-31T10:33:13.559Z,101378.12
2022-12-31T10:36:45.833Z,101384.62
2022-12-31T10:40:09.269Z,101390.88
2022-12-31T10:43:35.687Z,101378.25
2022-12-31T10:47:14.611Z,101365.13
2022-12-31T10:50:28.647Z,101339.41
2022-12-31T10:53:33.136Z,101338.22
2022-12-31T10:56:50.272Z,101344.66
2022-12-31T11:00:07.606Z,101322.97
2022-12-31T11:03:29.765Z,101329.97
2022-12-31T11:07:13.161Z,101329.44
2022-12-31T11:10:17.723Z,101332.56
2022-12-31T11:13:51.380Z,101322.31
2022-12-31T11:17:01.955Z,101322.69
2022-12-31T11:20:15.115Z,101317.22
2022-12-31T11:23:35.615Z,101332.28
2022-12-31T11:26:55.014Z,101348.97
2022-12-31T11:29:56.599Z,101366.63
2022-12-31T11:33:07.220Z,101367.91
2022-12-31T11:36:30.429Z,101369.13
2022-12-31T11:39:35.461Z,101353.94
2022-12-31T11:42:51.089Z,101344.53
2022-12-31T11:46:18.010Z,101341.91
2022-12-31T11:49:41.234Z,101339.75
2022-12-31T11:53:01.710Z,101338.00
2022-12-31T11:56:15.905Z,101332.25
2022-12-31T11:59:19.823Z,101324.03
2022-12-31T12:02:26.746Z,101319.28
2022-12-31T12:05:29.549Z,101308.56
2022-12-31T12:08:33.042Z,101308.91
2022-12-31T12:11:39.022Z,101302.81
2022-12-31T12:14:43.459Z,101327.53
2022-12-31T12:17:51.978Z,101315.34
2022-12-31T12:20:55.832Z,101332.44
2022-12-31T12:24:01.693Z,101345.69
2022-12-31T12:27:03.361Z,101343.91
2022-12-31T12:30:19.513Z,101348.22
2022-12-31T12:33:21.733Z,101334.94
2022-12-31T12:36:23.381Z,101326.78
2022-12-31T12:39:28.390Z,101336.34
2022-12-31T12:42:30.716Z,101337.53
2022-12-31T12:45:51.741Z,101325.19
2022-12-31T12:48:56.868Z,101321.56
2022-12-31T12:52:08.769Z,101318.72
2022-12-31T12:55:25.524Z,101322.91
2022-12-31T12:58:35.873Z,101337.41
2022-12-31T13:01:47.870Z,101331.09
2022-12-31T13:05:20.498Z,101331.19
2022-12-31T13:08:46.079Z,101352.31
2022-12-31T13:12:10.125Z,101335.94
2022-12-31T13:15:11.679Z,101347.56
2022-12-31T13:18:29.678Z,101348.94
2022-12-31T13:21:36.345Z,101338.72
2022-12-31T13:25:19.435Z,101348.31
2022-12-31T13:28:24.628Z,101347.66
2022-12-31T13:31:36.581Z,101345.22
2022-12-31T13:34:42.410Z,101340.94
2022-12-31T13:37:45.547Z,101333.09
2022-12-31T13:40:50.196Z,101339.34
2022-12-31T13:44:19.577Z,101341.13
2022-12-31T13:47:33.690Z,101336.41
2022-12-31T13:50:47.947Z,101349.38
2022-12-31T13:53:59.979Z,101342.37
2022-12-31T13:57:09.058Z,101348.78
2022-12-31T14:00:26.614Z,101357.78
2022-12-31T14:03:46.095Z,101360.19
2022-12-31T14:06:58.323Z,101350.28
2022-12-31T14:10:00.009Z,101359.94
2022-12-31T14:13:20.868Z,101354.44
2022-12-31T14:16:36.962Z,101356.00
2022-12-31T14:19:44.746Z,101364.25
2022-12-31T14:22:55.438Z,101365.06
2022-12-31T14:26:05.691Z,101376.13
2022-12-31T14:29:07.319Z,101373.66
2022-12-31T14:32:18.025Z,101374.53
2022-12-31T14:35:35.109Z,101359.47
2022-12-31T14:38:45.112Z,101359.03
2022-12-31T14:41:56.183Z,101356.28
2022-12-31T14:45:16.992Z,101357.34
2022-12-31T14:48:22.304Z,101353.94
2022-12-31T14:51:29.264Z,101355.41
2022-12-31T14:54:38.472Z,101351.81
2022-12-31T14:58:25.344Z,101365.91
2022-12-31T15:01:08.622Z,101366.28
2022-12-31T15:04:15.164Z,101373.28
2022-12-31T15:07:27.061Z,101370.97
2022-12-31T15:11:04.969Z,101363.22
2022-12-31T15:14:44.415Z,101364.31
2022-12-31T15:18:11.097Z,101367.38
2022-12-31T15:21:51.603Z,101373.78
2022-12-31T15:24:53.307Z,101369.47
2022-12-31T15:27:57.899Z,101378.28
2022-12-31T15:31:04.753Z,101381.59
2022-12-31T15:34:23.602Z,101376.97
2022-12-31T15:37:34.325Z,101366.06
2022-12-31T15:40:47.055Z,101361.53
2022-12-31T15:44:09.767Z,101379.81
2022-12-31T15:47:25.805Z,101372.00
2022-12-31T15:50:29.248Z,101379.91
2022-12-31T15:53:53.349Z,101385.84
2022-12-31T15:56:55.024Z,101384.56
2022-12-31T16:00:01.401Z,101392.75
2022-12-31T16:03:03.592Z,101398.00
2022-12-31T16:06:13.776Z,101386.44
2022-12-31T16:09:25.513Z,101386.37
2022-12-31T16:12:34.451Z,101389.56
2022-12-31T16:15:39.123Z,101387.06
2022-12-31T16:18:43.359Z,101401.56
2022-12-31T16:21:45.855Z,101394.84
2022-12-31T16:25:28.929Z,101389.25
2022-12-31T16:28:23.803Z,101394.03
2022-12-31T16:31:28.810Z,101378.28
2022-12-31T16:34:36.977Z,101364.72
2022-12-31T16:37:38.636Z,101363.91
2022-12-31T16:40:42.920Z,101370.81
2022-12-31T16:43:47.120Z,101377.16
2022-12-31T16:46:50.078Z,101385.31
2022-12-31T16:50:20.452Z,101391.84
2022-12-31T16:53:26.566Z,101390.56
2022-12-31T16:56:38.347Z,101386.69
2022-12-31T16:59:44.742Z,101377.13
2022-12-31T17:03:20.388Z,101392.00
2022-12-31T17:06:23.238Z,101401.69
2022-12-31T17:09:36.581Z,101403.97
2022-12-31T17:13:25.378Z,101409.87
2022-12-31T17:16:06.851Z,101401.09
2022-12-31T17:19:31.144Z,101392.94
2022-12-31T17:22:42.434Z,101382.78
2022-12-31T17:25:44.074Z,101401.25
2022-12-31T17:28:51.729Z,101396.03
2022-12-31T17:32:00.671Z,101401.75
2022-12-31T17:35:02.794Z,101409.50
2022-12-31T17:38:22.627Z,101417.47
2022-12-31T17:41:27.379Z,101426.44
2022-12-31T17:44:29.430Z,101427.13
2022-12-31T17:47:40.117Z,101422.03
2022-12-31T17:50:50.962Z,101412.34
2022-12-31T17:53:52.737Z,101398.38
2022-12-31T17:56:54.454Z,101393.78
2022-12-31T17:59:56.420Z,101404.25
2022-12-31T18:02:58.111Z,101400.03
2022-12-31T18:05:59.859Z,101409.94
2022-12-31T18:09:01.552Z,101410.75
2022-12-31T18:12:05.877Z,101412.16
2022-12-31T18:15:07.934Z,101422.50
2022-12-31T18:18:30.645Z,101425.75
2022-12-31T18:21:36.192Z,101429.56
2022-12-31T18:24:37.893Z,101438.34
2022-12-31T18:27:42.059Z,101445.06
2022-12-31T18:30:45.855Z,101447.09
2022-12-31T18:33:50.139Z,101431.03
2022-12-31T18:36:51.796Z,101433.41
2022-12-31T18:39:53.561Z,101446.69
2022-12-31T18:42:58.461Z,101442.09
2022-12-31T18:46:04.687Z,101443.94
2022-12-31T18:49:06.361Z,101450.28
2022-12-31T18:52:16.431Z,101434.34
2022-12-31T18:55:40.790Z,101437.81
2022-12-31T18:58:42.972Z,101430.03
2022-12-31T19:01:44.710Z,101428.62
2022-12-31T19:04:47.616Z,101422.12
2022-12-31T19:07:49.287Z,101430.09
2022-12-31T19:10:52.330Z,101422.75
2022-12-31T19:13:53.994Z,101429.19
2022-12-31T19:16:57.103Z,101421.84
2022-12-31T19:20:04.252Z,101439.38
2022-12-31T19:23:06.005Z,101436.94
2022-12-31T19:26:07.654Z,101457.16
2022-12-31T19:29:21.354Z,101460.75
2022-12-31T19:32:23.017Z,101462.25
2022-12-31T19:35:25.246Z,101457.69
2022-12-31T19:38:29.114Z,101459.19
2022-12-31T19:41:31.194Z,101458.22
2022-12-31T19:44:32.824Z,101457.44
2022-12-31T19:47:34.470Z,101447.09
2022-12-31T19:50:36.189Z,101460.41
2022-12-31T19:53:38.299Z,101445.91
2022-12-31T19:56:40.188Z,101449.81
2022-12-31T19:59:41.847Z,101454.25
2022-12-31T20:02:46.287Z,101462.81
2022-12-31T20:05:48.108Z,101453.25
2022-12-31T20:08:49.773Z,101457.06
2022-12-31T20:11:51.474Z,101451.44
2022-12-31T20:14:53.136Z,101454.22
2022-12-31T20:17:57.777Z,101445.25
2022-12-31T20:20:59.425Z,101444.44
2022-12-31T20:24:01.170Z,101439.28
2022-12-31T20:27:03.162Z,101448.44
2022-12-31T20:30:05.354Z,101448.91
2022-12-31T20:33:07.002Z,101451.34
2022-12-31T20:36:11.202Z,101444.16
2022-12-31T20:39:13.002Z,101432.22
2022-12-31T20:42:14.649Z,101434.34
2022-12-31T20:45:16.363Z,101429.44
2022-12-31T20:48:18.021Z,101432.59
2022-12-31T20:51:22.259Z,101428.78
2022-12-31T20:54:23.906Z,101422.09
2022-12-31T20:57:28.820Z,101416.19
2022-12-31T21:00:34.924Z,101416.19
2022-12-31T21:07:00.639Z,101419.53
2022-12-31T21:10:02.328Z,101428.31
2022-12-31T21:13:03.996Z,101426.28
2022-12-31T21:16:05.860Z,101431.34
2022-12-31T21:19:07.720Z,101435.62
2022-12-31T21:22:09.444Z,101444.16
2022-12-31T21:25:11.264Z,101437.19
2022-12-31T21:28:13.289Z,101437.75
2022-12-31T21:31:15.439Z,101434.97
2022-12-31T21:34:17.245Z,101441.25
2022-12-31T21:37:18.880Z,101444.88
2022-12-31T21:40:20.568Z,101449.34
2022-12-31T21:43:22.214Z,101456.75
2022-12-31T21:46:24.011Z,101448.22
2022-12-31T21:49:25.702Z,101450.25
2022-12-31T21:52:27.387Z,101449.34
2022-12-31T21:55:47.962Z,101446.91
2022-12-31T21:59:16.904Z,101444.19
2022-12-31T22:02:38.217Z,101442.38
2022-12-31T22:05:50.581Z,101445.72
2022-12-31T22:08:55.059Z,101441.47
2022-12-31T22:11:56.712Z,101433.75
2022-12-31T22:15:14.750Z,101436.72
2022-12-31T22:18:18.042Z,101429.41
2022-12-31T22:21:22.108Z,101438.56
2022-12-31T22:24:23.803Z,101449.38
2022-12-31T22:27:28.216Z,101455.44
2022-12-31T22:30:31.333Z,101454.75
2022-12-31T22:33:33.052Z,101449.06
2022-12-31T22:36:34.741Z,101445.75
2022-12-31T22:39:44.141Z,101454.50
2022-12-31T22:42:46.577Z,101457.03
2022-12-31T22:45:48.269Z,101459.19
2022-12-31T22:48:50.906Z,101465.22
2022-12-31T22:51:56.903Z,101467.97
2022-12-31T22:55:00.547Z,101468.88
2022-12-31T22:58:02.382Z,101467.97
2022-12-31T23:01:06.171Z,101467.87
2022-12-31T23:04:07.994Z,101468.34
2022-12-31T23:07:09.680Z,101462.94
2022-12-31T23:10:30.013Z,101458.66
2022-12-31T23:13:57.091Z,101461.19
2022-12-31T23:17:31.055Z,101453.94
2022-12-31T23:20:52.446Z,101450.56
2022-12-31T23:23:54.094Z,101450.66
2022-12-31T23:26:57.126Z,101447.78
2022-12-31T23:29:58.817Z,101454.22
2022-12-31T23:33:00.551Z,101456.31
2022-12-31T23:36:06.543Z,101460.56
2022-12-31T23:39:08.400Z,101467.47
2022-12-31T23:42:10.180Z,101462.56
2022-12-31T23:45:11.819Z,101463.31
2022-12-31T23:48:13.483Z,101448.75
2022-12-31T23:51:15.205Z,101461.03
2022-12-31T23:54:17.886Z,101459.12
2022-12-31T23:57:19.760Z,101457.16
